Desoto, Missouri
Current Conditions -  °F | °C
As of 6:15 AM on Thursday 18 Dec 2014 (Local Time) from KFAM Reporting Station
Overcast Overcast  
Wind Chill: 27°   Ceiling: 400
Heat Index: 32°   Visibility: 3mi
Dew Point: 30°   Wind: 5mph
Humidity: 93%   Direction: 10°N
Pressure: 30.24"   Gusts: NA
Location:  38.0925°N, 90.5691°W
Report Text: KFAM 181215Z AUTO 01004KT 3SM OVC004 00/M01 A3024 RMK AO1
Loading
Personal Weather Stations






























Interactive Weather Map New forecast layout! Learn more

10-Day Weather Forecast

Advertisements
Track Severe Weather on mobile